Time,TemperatureF,DewpointF,PressureIn,WindDirection,WindDirectionDegrees,WindSpeedMPH,WindSpeedGustMPH,Humidity,HourlyPrecipIn,Conditions,Clouds,dailyrainin,SoftwareType,DateUTC
2013-10-17 00:10:00,50.5,43.9,29.77,SE,135,0.0,-999.0,78,-99.99,,,0.00,Acu-Link.com,2013-10-17 04:10:00,
2013-10-17 00:25:00,50.4,44.1,29.78,ESE,112,3.2,-999.0,79,-99.99,,,0.00,Acu-Link.com,2013-10-17 04:25:00,
2013-10-17 00:40:00,50.4,44.1,29.76,East,90,2.7,-999.0,79,-99.99,,,0.00,Acu-Link.com,2013-10-17 04:40:00,
2013-10-17 00:55:00,50.4,44.1,29.75,ESE,112,1.1,-999.0,79,-99.99,,,0.00,Acu-Link.com,2013-10-17 04:55:00,
2013-10-17 01:10:00,50.4,44.1,29.76,ENE,67,4.2,-999.0,79,-99.99,,,0.00,Acu-Link.com,2013-10-17 05:10:00,
2013-10-17 01:25:00,50.4,44.1,29.77,NE,45,0.0,-999.0,79,-99.99,,,0.00,Acu-Link.com,2013-10-17 05:25:00,
2013-10-17 01:40:00,50.4,44.1,29.76,SSE,157,1.7,-999.0,79,-99.99,,,0.00,Acu-Link.com,2013-10-17 05:40:00,
2013-10-17 01:56:00,50.2,44.3,29.77,East,90,1.7,-999.0,80,-99.99,,,0.00,Acu-Link.com,2013-10-17 05:56:00,
2013-10-17 02:11:00,50.0,44.4,29.77,ESE,112,2.7,-999.0,81,-99.99,,,0.00,Acu-Link.com,2013-10-17 06:11:00,
2013-10-17 02:28:00,49.8,44.2,29.76,SE,135,3.2,-999.0,81,-99.99,,,0.00,Acu-Link.com,2013-10-17 06:28:00,
2013-10-17 02:44:00,49.8,44.2,29.77,SE,135,2.7,-999.0,81,-99.99,,,0.00,Acu-Link.com,2013-10-17 06:44:00,
2013-10-17 02:59:00,49.8,43.9,29.76,ESE,112,2.7,-999.0,80,-99.99,,,0.00,Acu-Link.com,2013-10-17 06:59:00,
2013-10-17 03:15:00,49.6,43.7,29.76,ESE,112,2.7,-999.0,80,-99.99,,,0.00,Acu-Link.com,2013-10-17 07:15:00,
2013-10-17 03:30:00,49.5,43.9,29.75,ESE,112,2.7,-999.0,81,-99.99,,,0.00,Acu-Link.com,2013-10-17 07:30:00,
2013-10-17 03:46:00,49.6,44.0,29.75,SSW,202,1.7,-999.0,81,-99.99,,,0.00,Acu-Link.com,2013-10-17 07:46:00,
2013-10-17 04:01:00,49.6,43.7,29.75,ESE,112,2.2,-999.0,80,-99.99,,,0.00,Acu-Link.com,2013-10-17 08:01:00,
2013-10-17 04:17:00,49.8,43.9,29.75,ESE,112,1.7,-999.0,80,-99.99,,,0.00,Acu-Link.com,2013-10-17 08:17:00,
2013-10-17 04:32:00,49.8,44.2,29.74,ESE,112,2.2,-999.0,81,-99.99,,,0.00,Acu-Link.com,2013-10-17 08:32:00,
2013-10-17 04:48:00,50.0,44.7,29.74,NW,315,0.0,-999.0,82,-99.99,,,0.00,Acu-Link.com,2013-10-17 08:48:00,
2013-10-17 05:03:00,50.0,44.7,29.75,NW,315,1.1,-999.0,82,-99.99,,,0.00,Acu-Link.com,2013-10-17 09:03:00,
2013-10-17 05:18:00,49.8,44.8,29.74,NNW,337,1.1,-999.0,83,-99.99,,,0.00,Acu-Link.com,2013-10-17 09:18:00,
2013-10-17 05:33:00,50.9,48.7,29.74,West,270,1.7,-999.0,92,-99.99,,,0.00,Acu-Link.com,2013-10-17 09:33:00,
2013-10-17 05:48:00,50.7,49.3,29.74,SSE,157,0.0,-999.0,95,-99.99,,,0.03,Acu-Link.com,2013-10-17 09:48:00,
2013-10-17 06:04:00,50.7,49.6,29.75,West,270,0.0,-999.0,96,-99.99,,,0.03,Acu-Link.com,2013-10-17 10:04:00,
2013-10-17 06:19:00,50.7,49.9,29.75,WNW,292,0.0,-999.0,97,-99.99,,,0.03,Acu-Link.com,2013-10-17 10:19:00,
2013-10-17 06:34:00,50.5,49.7,29.74,NNW,337,0.0,-999.0,97,-99.99,,,0.03,Acu-Link.com,2013-10-17 10:34:00,
2013-10-17 06:49:00,50.2,49.4,29.75,West,270,0.0,-999.0,97,-99.99,,,0.03,Acu-Link.com,2013-10-17 10:49:00,
2013-10-17 07:04:00,49.8,49.0,29.74,West,270,0.0,-999.0,97,-99.99,,,0.03,Acu-Link.com,2013-10-17 11:04:00,
2013-10-17 07:20:00,49.6,49.1,29.75,NNW,337,0.0,-999.0,98,-99.99,,,0.03,Acu-Link.com,2013-10-17 11:20:00,
2013-10-17 07:35:00,49.5,49.0,29.75,North,0,0.0,-999.0,98,-99.99,,,0.03,Acu-Link.com,2013-10-17 11:35:00,
2013-10-17 07:50:00,50.5,50.0,29.75,West,270,0.0,-999.0,98,-99.99,,,0.03,Acu-Link.com,2013-10-17 11:50:00,
2013-10-17 08:05:00,51.6,50.8,29.75,SW,225,2.2,-999.0,97,-99.99,,,0.03,Acu-Link.com,2013-10-17 12:05:00,
2013-10-17 08:20:00,51.6,50.8,29.74,West,270,4.2,-999.0,97,-99.99,,,0.03,Acu-Link.com,2013-10-17 12:20:00,
2013-10-17 08:36:00,51.8,51.0,29.74,SW,225,2.2,-999.0,97,-99.99,,,0.03,Acu-Link.com,2013-10-17 12:36:00,
2013-10-17 08:51:00,52.3,51.5,29.75,West,270,2.2,-999.0,97,-99.99,,,0.03,Acu-Link.com,2013-10-17 12:51:00,
2013-10-17 09:06:00,52.3,51.5,29.75,WSW,247,0.0,-999.0,97,-99.99,,,0.03,Acu-Link.com,2013-10-17 13:06:00,
2013-10-17 09:21:00,52.9,51.5,29.75,West,270,1.7,-999.0,95,-99.99,,,0.03,Acu-Link.com,2013-10-17 13:21:00,
2013-10-17 09:37:00,53.8,51.5,29.75,West,270,3.2,-999.0,92,-99.99,,,0.03,Acu-Link.com,2013-10-17 13:37:00,
2013-10-17 09:52:00,54.9,52.0,29.75,SW,225,6.8,-999.0,90,-99.99,,,0.03,Acu-Link.com,2013-10-17 13:52:00,
2013-10-17 10:07:00,54.5,51.6,29.75,West,270,7.8,-999.0,90,-99.99,,,0.03,Acu-Link.com,2013-10-17 14:07:00,
2013-10-17 10:22:00,54.7,51.2,29.75,SW,225,7.8,-999.0,88,-99.99,,,0.03,Acu-Link.com,2013-10-17 14:22:00,
2013-10-17 10:37:00,55.2,49.1,29.74,SW,225,12.5,-999.0,80,-99.99,,,0.03,Acu-Link.com,2013-10-17 14:37:00,
2013-10-17 10:53:00,55.4,48.7,29.74,WSW,247,6.3,-999.0,78,-99.99,,,0.03,Acu-Link.com,2013-10-17 14:53:00,
2013-10-17 11:08:00,55.2,47.1,29.74,West,270,10.9,-999.0,74,-99.99,,,0.03,Acu-Link.com,2013-10-17 15:08:00,
2013-10-17 11:23:00,56.5,47.6,29.74,WSW,247,5.3,-999.0,72,-99.99,,,0.03,Acu-Link.com,2013-10-17 15:23:00,
2013-10-17 11:38:00,55.8,46.2,29.74,West,270,11.4,-999.0,70,-99.99,,,0.03,Acu-Link.com,2013-10-17 15:38:00,
2013-10-17 11:53:00,55.9,45.9,29.74,WSW,247,5.3,-999.0,69,-99.99,,,0.03,Acu-Link.com,2013-10-17 15:53:00,
2013-10-17 12:09:00,55.0,46.1,29.74,SW,225,3.7,-999.0,72,-99.99,,,0.03,Acu-Link.com,2013-10-17 16:09:00,
2013-10-17 12:24:00,55.2,47.4,29.73,WSW,247,6.3,-999.0,75,-99.99,,,0.03,Acu-Link.com,2013-10-17 16:24:00,
2013-10-17 12:39:00,55.2,46.3,29.74,SW,225,9.9,-999.0,72,-99.99,,,0.03,Acu-Link.com,2013-10-17 16:39:00,
2013-10-17 12:54:00,56.1,45.7,29.71,West,270,5.8,-999.0,68,-99.99,,,0.03,Acu-Link.com,2013-10-17 16:54:00,
2013-10-17 13:10:00,57.7,45.6,29.71,SW,225,6.8,-999.0,64,-99.99,,,0.03,Acu-Link.com,2013-10-17 17:10:00,
2013-10-17 13:25:00,56.3,45.5,29.72,West,270,6.3,-999.0,67,-99.99,,,0.03,Acu-Link.com,2013-10-17 17:25:00,
2013-10-17 13:40:00,55.8,45.0,29.71,WNW,292,7.3,-999.0,67,-99.99,,,0.03,Acu-Link.com,2013-10-17 17:40:00,
2013-10-17 13:55:00,56.1,45.3,29.72,WSW,247,8.3,-999.0,67,-99.99,,,0.03,Acu-Link.com,2013-10-17 17:55:00,
2013-10-17 14:10:00,56.8,46.0,29.72,SW,225,7.3,-999.0,67,-99.99,,,0.03,Acu-Link.com,2013-10-17 18:10:00,
2013-10-17 14:26:00,56.8,44.8,29.72,WSW,247,6.8,-999.0,64,-99.99,,,0.03,Acu-Link.com,2013-10-17 18:26:00,
2013-10-17 14:41:00,57.7,45.6,29.71,SW,225,9.9,-999.0,64,-99.99,,,0.03,Acu-Link.com,2013-10-17 18:41:00,
2013-10-17 14:56:00,58.3,44.5,29.71,ESE,112,10.4,-999.0,60,-99.99,,,0.03,Acu-Link.com,2013-10-17 18:56:00,
2013-10-17 15:12:00,59.2,44.4,29.71,WNW,292,7.8,-999.0,58,-99.99,,,0.03,Acu-Link.com,2013-10-17 19:12:00,
2013-10-17 15:27:00,58.8,44.9,29.71,WSW,247,7.3,-999.0,60,-99.99,,,0.03,Acu-Link.com,2013-10-17 19:27:00,
2013-10-17 15:42:00,58.8,44.5,29.71,West,270,7.8,-999.0,59,-99.99,,,0.03,Acu-Link.com,2013-10-17 19:42:00,
2013-10-17 15:57:00,59.0,44.7,29.70,WNW,292,8.9,-999.0,59,-99.99,,,0.03,Acu-Link.com,2013-10-17 19:57:00,
2013-10-17 16:12:00,57.7,43.9,29.71,SW,225,5.8,-999.0,60,-99.99,,,0.03,Acu-Link.com,2013-10-17 20:12:00,
2013-10-17 16:28:00,57.6,44.3,29.70,West,270,6.8,-999.0,61,-99.99,,,0.03,Acu-Link.com,2013-10-17 20:28:00,
2013-10-17 16:43:00,57.4,44.5,29.70,SW,225,4.7,-999.0,62,-99.99,,,0.03,Acu-Link.com,2013-10-17 20:43:00,
2013-10-17 16:58:00,57.4,44.9,29.70,NNW,337,1.1,-999.0,63,-99.99,,,0.03,Acu-Link.com,2013-10-17 20:58:00,
2013-10-17 17:13:00,57.6,45.1,29.71,WSW,247,1.7,-999.0,63,-99.99,,,0.03,Acu-Link.com,2013-10-17 21:13:00,
2013-10-17 17:28:00,56.7,44.7,29.70,NE,45,1.7,-999.0,64,-99.99,,,0.03,Acu-Link.com,2013-10-17 21:28:00,
2013-10-17 17:44:00,55.6,44.8,29.70,NW,315,0.0,-999.0,67,-99.99,,,0.03,Acu-Link.com,2013-10-17 21:44:00,
2013-10-17 17:59:00,54.3,44.3,29.70,West,270,2.7,-999.0,69,-99.99,,,0.03,Acu-Link.com,2013-10-17 21:59:00,
2013-10-17 18:14:00,53.8,44.2,29.71,West,270,1.1,-999.0,70,-99.99,,,0.03,Acu-Link.com,2013-10-17 22:14:00,
2013-10-17 18:29:00,52.7,43.6,29.71,NNW,337,1.7,-999.0,71,-99.99,,,0.03,Acu-Link.com,2013-10-17 22:29:00,
2013-10-17 18:44:00,50.9,43.3,29.71,ENE,67,0.0,-999.0,75,-99.99,,,0.03,Acu-Link.com,2013-10-17 22:44:00,
2013-10-17 19:00:00,49.3,42.4,29.71,NNE,22,0.0,-999.0,77,-99.99,,,0.03,Acu-Link.com,2013-10-17 23:00:00,
2013-10-17 19:15:00,48.2,41.7,29.72,ENE,67,0.0,-999.0,78,-99.99,,,0.03,Acu-Link.com,2013-10-17 23:15:00,
2013-10-17 19:30:00,47.5,41.6,29.72,NNW,337,2.7,-999.0,80,-99.99,,,0.03,Acu-Link.com,2013-10-17 23:30:00,
2013-10-17 19:45:00,47.3,41.8,29.72,NE,45,0.0,-999.0,81,-99.99,,,0.03,Acu-Link.com,2013-10-17 23:45:00,
2013-10-17 20:01:00,46.9,41.4,29.71,ENE,67,0.0,-999.0,81,-99.99,,,0.03,Acu-Link.com,2013-10-18 00:01:00,
2013-10-17 20:16:00,45.5,40.6,29.71,West,270,0.0,-999.0,83,-99.99,,,0.03,Acu-Link.com,2013-10-18 00:16:00,
2013-10-17 20:31:00,44.8,40.0,29.72,NE,45,1.7,-999.0,83,-99.99,,,0.03,Acu-Link.com,2013-10-18 00:31:00,
2013-10-17 20:46:00,44.2,40.0,29.71,NNE,22,1.1,-999.0,85,-99.99,,,0.03,Acu-Link.com,2013-10-18 00:46:00,
2013-10-17 21:01:00,43.9,40.0,29.70,West,270,1.7,-999.0,86,-99.99,,,0.03,Acu-Link.com,2013-10-18 01:01:00,
2013-10-17 21:17:00,43.0,39.7,29.71,NE,45,1.1,-999.0,88,-99.99,,,0.03,Acu-Link.com,2013-10-18 01:17:00,
2013-10-17 21:32:00,42.6,39.6,29.70,NNE,22,0.0,-999.0,89,-99.99,,,0.03,Acu-Link.com,2013-10-18 01:32:00,
2013-10-17 21:47:00,42.4,40.0,29.71,North,0,1.1,-999.0,91,-99.99,,,0.03,Acu-Link.com,2013-10-18 01:47:00,
2013-10-17 22:02:00,42.4,40.8,29.70,ESE,112,1.1,-999.0,94,-99.99,,,0.03,Acu-Link.com,2013-10-18 02:02:00,
2013-10-17 22:17:00,42.1,40.5,29.70,SE,135,0.0,-999.0,94,-99.99,,,0.03,Acu-Link.com,2013-10-18 02:17:00,
2013-10-17 22:33:00,41.5,39.9,29.69,East,90,0.0,-999.0,94,-99.99,,,0.03,Acu-Link.com,2013-10-18 02:33:00,
2013-10-17 22:48:00,41.4,40.6,29.69,West,270,1.7,-999.0,97,-99.99,,,0.03,Acu-Link.com,2013-10-18 02:48:00,
2013-10-17 23:03:00,41.9,41.1,29.67,North,0,1.1,-999.0,97,-99.99,,,0.03,Acu-Link.com,2013-10-18 03:03:00,
2013-10-17 23:19:00,41.7,40.9,29.65,SSW,202,0.0,-999.0,97,-99.99,,,0.03,Acu-Link.com,2013-10-18 03:19:00,
2013-10-17 23:34:00,41.9,41.1,29.67,NNE,22,1.7,-999.0,97,-99.99,,,0.03,Acu-Link.com,2013-10-18 03:34:00,
2013-10-17 23:49:00,42.3,41.8,29.65,WSW,247,0.0,-999.0,98,-99.99,,,0.03,Acu-Link.com,2013-10-18 03:49:00,